createdAt,value
2023-01-04T00:01:34.499Z,7.30
2023-01-04T00:04:02.577Z,7.00
2023-01-04T00:06:30.597Z,6.80
2023-01-04T00:08:58.663Z,6.70
2023-01-04T00:11:27.986Z,6.70
2023-01-04T00:13:58.221Z,6.80
2023-01-04T00:16:27.965Z,6.80
2023-01-04T00:18:56.552Z,6.80
2023-01-04T00:21:25.892Z,6.80
2023-01-04T00:23:55.643Z,6.70
2023-01-04T00:26:25.695Z,6.70
2023-01-04T00:28:59.976Z,6.70
2023-01-04T00:31:28.946Z,6.80
2023-01-04T00:33:57.959Z,6.70
2023-01-04T00:36:26.868Z,6.70
2023-01-04T00:39:08.949Z,6.70
2023-01-04T00:44:28.280Z,6.70
2023-01-04T00:46:56.561Z,6.70
2023-01-04T00:49:24.990Z,6.60
2023-01-04T00:51:53.028Z,6.60
2023-01-04T00:54:21.422Z,6.70
2023-01-04T00:56:49.815Z,6.80
2023-01-04T00:59:20.897Z,6.90
2023-01-04T01:01:50.815Z,6.90
2023-01-04T01:04:21.190Z,6.70
2023-01-04T01:06:49.834Z,6.60
2023-01-04T01:09:18.137Z,6.40
2023-01-04T01:11:46.469Z,6.30
2023-01-04T01:14:18.553Z,6.40
2023-01-04T01:17:02.450Z,6.30
2023-01-04T01:19:32.116Z,6.20
2023-01-04T01:22:00.156Z,6.20
2023-01-04T01:24:28.511Z,6.20
2023-01-04T01:26:56.638Z,6.20
2023-01-04T01:29:25.424Z,6.20
2023-01-04T01:31:53.492Z,6.10
2023-01-04T01:34:21.517Z,6.10
2023-01-04T01:36:51.270Z,5.90
2023-01-04T01:39:19.334Z,5.90
2023-01-04T01:41:47.374Z,6.00
2023-01-04T01:44:52.923Z,6.00
2023-01-04T01:47:23.907Z,6.10
2023-01-04T01:49:54.323Z,6.10
2023-01-04T01:52:28.594Z,6.20
2023-01-04T01:54:59.896Z,6.30
2023-01-04T01:57:32.732Z,6.40
2023-01-04T02:00:04.723Z,6.50
2023-01-04T02:02:32.854Z,6.70
2023-01-04T02:05:03.111Z,6.70
2023-01-04T02:07:32.989Z,6.70
2023-01-04T02:10:01.137Z,6.70
2023-01-04T02:12:29.080Z,6.70
2023-01-04T02:14:57.187Z,6.60
2023-01-04T02:17:35.564Z,6.60
2023-01-04T02:20:26.427Z,6.50
2023-01-04T02:23:38.373Z,6.40
2023-01-04T02:26:29.792Z,6.40
2023-01-04T02:29:20.808Z,6.30
2023-01-04T02:31:54.225Z,6.30
2023-01-04T02:34:31.726Z,6.20
2023-01-04T02:37:04.609Z,6.10
2023-01-04T02:39:42.328Z,6.10
2023-01-04T02:42:17.411Z,6.20
2023-01-04T02:44:57.273Z,6.20
2023-01-04T02:47:47.587Z,6.40
2023-01-04T02:50:31.807Z,6.50
2023-01-04T02:53:02.525Z,6.60
2023-01-04T02:55:39.967Z,6.70
2023-01-04T02:58:14.532Z,6.70
2023-01-04T03:01:10.823Z,6.70
2023-01-04T03:04:06.930Z,6.80
2023-01-04T03:06:43.818Z,6.80
2023-01-04T03:09:19.361Z,6.80
2023-01-04T03:12:10.042Z,6.80
2023-01-04T03:14:43.120Z,6.70
2023-01-04T03:17:14.820Z,6.70
2023-01-04T03:19:55.390Z,6.60
2023-01-04T03:22:48.512Z,6.60
2023-01-04T03:25:36.947Z,6.60
2023-01-04T03:28:24.614Z,6.60
2023-01-04T03:31:15.347Z,6.60
2023-01-04T03:34:01.738Z,6.60
2023-01-04T03:36:47.404Z,6.70
2023-01-04T03:39:40.162Z,6.70
2023-01-04T03:42:34.619Z,6.70
2023-01-04T03:45:30.139Z,6.70
2023-01-04T03:48:22.244Z,6.70
2023-01-04T03:50:54.183Z,6.80
2023-01-04T03:53:24.211Z,6.70
2023-01-04T03:55:53.690Z,6.80
2023-01-04T03:58:22.432Z,6.70
2023-01-04T04:00:50.559Z,6.70
2023-01-04T04:03:18.679Z,6.70
2023-01-04T04:06:04.873Z,6.70
2023-01-04T04:08:34.325Z,6.70
2023-01-04T04:11:18.189Z,6.70
2023-01-04T04:13:46.371Z,6.70
2023-01-04T04:16:14.443Z,6.70
2023-01-04T04:18:42.548Z,6.60
2023-01-04T04:21:10.580Z,6.40
2023-01-04T04:23:39.864Z,6.10
2023-01-04T04:26:07.862Z,5.80
2023-01-04T04:28:35.803Z,5.70
2023-01-04T04:31:04.198Z,5.70
2023-01-04T04:33:32.230Z,5.60
2023-01-04T04:36:00.219Z,5.50
2023-01-04T04:38:28.268Z,5.40
2023-01-04T04:41:15.350Z,5.50
2023-01-04T04:43:43.406Z,5.40
2023-01-04T04:46:11.385Z,5.40
2023-01-04T04:48:39.345Z,5.40
2023-01-04T04:51:07.536Z,5.40
2023-01-04T04:53:35.453Z,5.40
2023-01-04T04:56:04.952Z,5.40
2023-01-04T04:58:33.068Z,5.40
2023-01-04T05:01:01.152Z,5.40
2023-01-04T05:03:29.362Z,5.30
2023-01-04T05:05:57.321Z,5.30
2023-01-04T05:08:25.307Z,5.20
2023-01-04T05:10:53.335Z,5.20
2023-01-04T05:13:22.051Z,5.30
2023-01-04T05:15:52.586Z,5.30
2023-01-04T05:18:22.908Z,5.20
2023-01-04T05:20:51.158Z,5.30
2023-01-04T05:23:21.433Z,5.30
2023-01-04T05:25:53.832Z,5.30
2023-01-04T05:28:23.159Z,5.30
2023-01-04T05:30:50.494Z,5.40
2023-01-04T05:33:19.373Z,5.40
2023-01-04T05:35:47.647Z,5.50
2023-01-04T05:38:15.863Z,5.50
2023-01-04T05:40:44.049Z,5.50
2023-01-04T05:43:13.716Z,5.60
2023-01-04T05:45:44.977Z,5.60
2023-01-04T05:48:13.047Z,5.60
2023-01-04T05:50:41.155Z,5.60
2023-01-04T05:53:09.213Z,5.60
2023-01-04T05:55:37.185Z,5.50
2023-01-04T05:58:05.244Z,5.50
2023-01-04T06:00:33.333Z,5.50
2023-01-04T06:03:02.751Z,5.50
2023-01-04T06:05:30.755Z,5.50
2023-01-04T06:07:58.699Z,5.50
2023-01-04T06:10:26.707Z,5.50
2023-01-04T06:12:54.737Z,5.50
2023-01-04T06:15:22.688Z,5.60
2023-01-04T06:17:50.661Z,5.70
2023-01-04T06:20:19.947Z,5.70
2023-01-04T06:22:47.861Z,5.80
2023-01-04T06:25:15.890Z,5.70
2023-01-04T06:27:43.866Z,5.70
2023-01-04T06:30:12.366Z,5.70
2023-01-04T06:32:40.380Z,5.70
2023-01-04T06:35:09.008Z,5.60
2023-01-04T06:37:38.318Z,5.60
2023-01-04T06:40:07.487Z,5.60
2023-01-04T06:42:47.315Z,5.50
2023-01-04T06:45:15.843Z,5.60
2023-01-04T06:47:43.805Z,5.50
2023-01-04T06:50:12.090Z,5.50
2023-01-04T06:52:41.813Z,5.50
2023-01-04T06:55:10.668Z,5.50
2023-01-04T06:57:38.692Z,5.50
2023-01-04T07:00:08.999Z,5.50
2023-01-04T07:02:37.472Z,5.40
2023-01-04T07:05:06.513Z,5.40
2023-01-04T07:07:35.497Z,5.40
2023-01-04T07:10:09.538Z,5.40
2023-01-04T07:12:39.563Z,5.40
2023-01-04T07:15:38.326Z,5.40
2023-01-04T07:17:56.715Z,5.40
2023-01-04T07:20:24.836Z,5.40
2023-01-04T07:22:53.199Z,5.40
2023-01-04T07:25:22.535Z,5.40
2023-01-04T07:27:53.160Z,5.40
2023-01-04T07:30:21.548Z,5.40
2023-01-04T07:32:49.854Z,5.40
2023-01-04T07:35:17.988Z,5.40
2023-01-04T07:37:45.965Z,5.40
2023-01-04T07:40:14.245Z,5.40
2023-01-04T07:42:43.605Z,5.40
2023-01-04T07:45:12.045Z,5.50
2023-01-04T07:47:39.957Z,5.50
2023-01-04T07:50:08.558Z,5.50
2023-01-04T07:52:36.566Z,5.50
2023-01-04T07:55:04.581Z,5.60
2023-01-04T07:57:32.523Z,5.60
2023-01-04T08:00:01.905Z,5.60
2023-01-04T08:02:30.050Z,5.60
2023-01-04T08:04:58.139Z,5.70
2023-01-04T08:07:26.254Z,5.70
2023-01-04T08:09:54.291Z,5.80
2023-01-04T08:12:22.273Z,5.80
2023-01-04T08:14:50.212Z,5.80
2023-01-04T08:17:19.526Z,5.80
2023-01-04T08:19:47.581Z,5.90
2023-01-04T08:22:15.565Z,6.00
2023-01-04T08:24:43.791Z,6.10
2023-01-04T08:27:12.086Z,6.10
2023-01-04T08:29:39.981Z,6.10
2023-01-04T08:32:08.074Z,6.10
2023-01-04T08:34:37.403Z,6.20
2023-01-04T08:37:05.273Z,6.20
2023-01-04T08:39:35.957Z,6.20
2023-01-04T08:42:17.949Z,6.30
2023-01-04T08:44:48.584Z,6.30
2023-01-04T08:47:16.513Z,6.30
2023-01-04T08:49:45.818Z,6.40
2023-01-04T08:52:15.809Z,6.40
2023-01-04T08:54:43.761Z,6.40
2023-01-04T08:57:12.165Z,6.50
2023-01-04T08:59:40.197Z,6.50
2023-01-04T09:02:24.489Z,6.50
2023-01-04T09:04:55.285Z,6.60
2023-01-04T09:07:23.454Z,6.60
2023-01-04T09:09:51.448Z,6.70
2023-01-04T09:12:19.324Z,6.70
2023-01-04T09:14:47.353Z,6.80
2023-01-04T09:17:15.296Z,6.90
2023-01-04T09:19:43.336Z,7.00
2023-01-04T09:22:12.871Z,7.10
2023-01-04T09:24:40.895Z,7.10
2023-01-04T09:27:08.846Z,7.20
2023-01-04T09:29:36.910Z,7.30
2023-01-04T09:32:04.944Z,7.30
2023-01-04T09:34:32.845Z,7.30
2023-01-04T09:37:00.828Z,7.30
2023-01-04T09:39:30.656Z,7.30
2023-01-04T09:42:00.140Z,7.30
2023-01-04T09:47:38.372Z,7.50
2023-01-04T09:50:14.143Z,7.60
2023-01-04T09:52:50.301Z,7.60
2023-01-04T09:55:38.738Z,7.70
2023-01-04T09:58:18.792Z,7.80
2023-01-04T10:00:49.721Z,8.00
2023-01-04T10:03:23.732Z,8.10
2023-01-04T10:05:53.570Z,8.20
2023-01-04T10:08:21.875Z,8.20
2023-01-04T10:11:01.784Z,8.20
2023-01-04T10:13:56.725Z,8.20
2023-01-04T10:22:37.621Z,7.90
2023-01-04T10:25:21.484Z,7.80
2023-01-04T10:28:00.514Z,7.80
2023-01-04T10:30:36.525Z,7.70
2023-01-04T10:33:12.879Z,7.70
2023-01-04T10:35:43.485Z,7.70
2023-01-04T10:38:18.740Z,7.60
2023-01-04T10:40:48.890Z,7.60
2023-01-04T10:43:26.351Z,7.60
2023-01-04T10:46:00.930Z,7.60
2023-01-04T10:48:39.211Z,7.60
2023-01-04T10:51:10.584Z,7.60
2023-01-04T10:53:44.564Z,7.60
2023-01-04T10:56:26.382Z,7.60
2023-01-04T10:59:17.314Z,7.60
2023-01-04T11:01:50.230Z,7.60
2023-01-04T11:04:24.307Z,7.60
2023-01-04T11:06:58.630Z,7.70
2023-01-04T11:09:32.533Z,7.70
2023-01-04T11:12:16.409Z,7.70
2023-01-04T11:14:46.039Z,7.70
2023-01-04T11:17:14.387Z,7.70
2023-01-04T11:19:43.620Z,7.80
2023-01-04T11:22:16.914Z,7.80
2023-01-04T11:25:00.684Z,7.90
2023-01-04T11:27:45.653Z,8.00
2023-01-04T11:30:20.927Z,8.00
2023-01-04T11:32:58.473Z,8.10
2023-01-04T11:35:42.740Z,8.10
2023-01-04T11:38:14.205Z,8.10
2023-01-04T11:40:42.647Z,8.20
2023-01-04T11:43:19.354Z,8.20
2023-01-04T11:46:01.356Z,8.20
2023-01-04T11:48:40.708Z,8.20
2023-01-04T11:51:19.400Z,8.20
2023-01-04T11:53:57.153Z,8.20
2023-01-04T11:56:26.528Z,8.10
2023-01-04T11:59:22.608Z,8.20
2023-01-04T12:02:35.189Z,8.20
2023-01-04T12:05:26.143Z,8.20
2023-01-04T12:07:56.632Z,8.30
2023-01-04T12:10:27.580Z,8.30
2023-01-04T12:12:56.460Z,8.30
2023-01-04T12:15:33.173Z,8.20
2023-01-04T12:18:07.378Z,8.20
2023-01-04T12:20:37.428Z,8.20
2023-01-04T12:23:05.398Z,8.20
2023-01-04T12:25:39.416Z,8.20
2023-01-04T12:28:07.661Z,8.20
2023-01-04T12:30:38.381Z,8.20
2023-01-04T12:33:40.699Z,8.30
2023-01-04T12:36:10.137Z,8.20
2023-01-04T12:39:28.824Z,8.20
2023-01-04T12:42:21.540Z,8.20
2023-01-04T12:45:16.364Z,8.20
2023-01-04T12:48:07.235Z,8.20
2023-01-04T12:51:32.169Z,8.20
2023-01-04T12:54:03.989Z,8.30
2023-01-04T12:57:11.643Z,8.30
2023-01-04T12:59:48.380Z,8.30
2023-01-04T13:02:19.871Z,8.30
2023-01-04T13:04:48.841Z,8.40
2023-01-04T13:07:21.485Z,8.40
2023-01-04T13:09:57.619Z,8.50
2023-01-04T13:13:04.680Z,8.50
2023-01-04T13:15:45.217Z,8.60
2023-01-04T13:18:31.531Z,8.60
2023-01-04T13:20:59.861Z,8.60
2023-01-04T13:23:28.689Z,8.70
2023-01-04T13:26:17.600Z,8.60
2023-01-04T13:28:45.524Z,8.60
2023-01-04T13:31:13.530Z,8.60
2023-01-04T13:33:41.549Z,8.60
2023-01-04T13:36:12.384Z,8.60
2023-01-04T13:38:41.659Z,8.50
2023-01-04T13:41:21.594Z,8.60
2023-01-04T13:44:04.173Z,8.70
2023-01-04T13:46:32.290Z,8.60
2023-01-04T13:49:03.217Z,8.70
2023-01-04T13:51:37.896Z,8.70
2023-01-04T13:54:17.964Z,8.60
2023-01-04T13:59:35.394Z,8.60
2023-01-04T14:02:03.581Z,8.60
2023-01-04T14:04:33.708Z,8.50
2023-01-04T14:07:03.022Z,8.50
2023-01-04T14:09:33.626Z,8.50
2023-01-04T14:12:47.648Z,8.50
2023-01-04T14:16:07.250Z,8.40
2023-01-04T14:18:50.396Z,8.40
2023-01-04T14:21:42.529Z,8.40
2023-01-04T14:39:49.898Z,8.40
2023-01-04T14:42:37.404Z,8.30
2023-01-04T14:45:14.234Z,8.30
2023-01-04T14:47:42.847Z,8.30
2023-01-04T14:50:11.147Z,8.30
2023-01-04T14:52:39.127Z,8.40
2023-01-04T14:55:07.867Z,8.30
2023-01-04T14:57:43.255Z,8.30
2023-01-04T15:00:18.943Z,8.30
2023-01-04T15:02:50.142Z,8.30
2023-01-04T15:05:20.091Z,8.30
2023-01-04T15:07:48.324Z,8.30
2023-01-04T15:10:22.639Z,8.30
2023-01-04T15:12:52.090Z,8.30
2023-01-04T15:15:20.895Z,8.20
2023-01-04T15:17:49.347Z,8.30
2023-01-04T15:20:17.494Z,8.40
2023-01-04T15:22:45.655Z,8.30
2023-01-04T15:25:13.724Z,8.30
2023-01-04T15:27:42.782Z,8.20
2023-01-04T15:30:14.240Z,8.20
2023-01-04T15:32:42.686Z,8.20
2023-01-04T15:35:16.251Z,8.20
2023-01-04T15:37:44.487Z,8.20
2023-01-04T15:40:13.699Z,8.20
2023-01-04T15:42:58.858Z,8.10
2023-01-04T15:45:28.730Z,8.10
2023-01-04T15:48:02.915Z,8.10
2023-01-04T15:50:31.826Z,8.00
2023-01-04T15:52:59.783Z,7.90
2023-01-04T15:55:34.065Z,7.90
2023-01-04T15:58:04.475Z,7.90
2023-01-04T16:00:34.238Z,7.90
2023-01-04T16:03:02.420Z,8.00
2023-01-04T16:05:30.647Z,8.10
2023-01-04T16:07:58.828Z,8.20
2023-01-04T16:10:28.084Z,8.30
2023-01-04T16:12:57.285Z,8.30
2023-01-04T16:15:25.397Z,8.40
2023-01-04T16:17:54.683Z,8.40
2023-01-04T16:20:22.617Z,8.40
2023-01-04T16:22:50.565Z,8.30
2023-01-04T16:25:18.527Z,8.30
2023-01-04T16:27:46.758Z,8.30
2023-01-04T16:30:15.798Z,8.30
2023-01-04T16:32:45.486Z,8.30
2023-01-04T16:35:14.870Z,8.30
2023-01-04T16:37:43.414Z,8.20
2023-01-04T16:40:14.180Z,8.20
2023-01-04T16:42:43.595Z,8.30
2023-01-04T16:45:12.795Z,8.20
2023-01-04T16:47:42.719Z,8.20
2023-01-04T16:50:12.280Z,8.20
2023-01-04T16:52:41.789Z,8.20
2023-01-04T16:55:11.318Z,8.30
2023-01-04T16:57:39.514Z,8.30
2023-01-04T17:00:09.196Z,8.20
2023-01-04T17:02:40.472Z,8.30
2023-01-04T17:05:10.953Z,8.20
2023-01-04T17:07:39.182Z,8.10
2023-01-04T17:10:09.867Z,8.20
2023-01-04T17:12:47.505Z,8.20
2023-01-04T17:15:42.511Z,8.20
2023-01-04T17:18:05.371Z,8.20
2023-01-04T17:20:33.671Z,8.20
2023-01-04T17:23:01.873Z,8.20
2023-01-04T17:25:31.884Z,8.20
2023-01-04T17:28:00.031Z,8.20
2023-01-04T17:30:28.187Z,8.20
2023-01-04T17:32:56.461Z,8.20
2023-01-04T17:35:24.755Z,8.30
2023-01-04T17:37:52.935Z,8.20
2023-01-04T17:40:23.390Z,8.30
2023-01-04T17:42:52.974Z,8.30
2023-01-04T17:45:21.234Z,8.20
2023-01-04T17:47:49.645Z,8.10
2023-01-04T17:50:18.221Z,8.10
2023-01-04T17:52:46.629Z,8.00
2023-01-04T17:55:15.055Z,8.00
2023-01-04T18:00:14.877Z,7.90
2023-01-04T18:02:43.145Z,7.90
2023-01-04T18:05:11.558Z,7.80
2023-01-04T18:07:39.561Z,7.80
2023-01-04T18:10:08.069Z,7.80
2023-01-04T18:12:36.064Z,7.80
2023-01-04T18:15:06.528Z,7.80
2023-01-04T18:17:36.058Z,7.80
2023-01-04T18:20:04.635Z,7.80
2023-01-04T18:22:35.080Z,7.80
2023-01-04T18:25:04.227Z,7.80
2023-01-04T18:27:32.205Z,7.80
2023-01-04T18:30:00.306Z,7.80
2023-01-04T18:32:28.542Z,7.80
2023-01-04T18:34:58.273Z,7.90
2023-01-04T18:37:26.418Z,7.80
2023-01-04T18:39:54.379Z,7.90
2023-01-04T18:42:22.400Z,7.80
2023-01-04T18:44:50.375Z,7.80
2023-01-04T18:47:20.343Z,7.80
2023-01-04T18:49:48.972Z,7.80
2023-01-04T18:52:19.174Z,7.90
2023-01-04T18:54:48.384Z,7.90
2023-01-04T18:57:16.893Z,7.90
2023-01-04T18:59:49.737Z,7.80
2023-01-04T19:02:19.496Z,7.90
2023-01-04T19:04:48.039Z,7.90
2023-01-04T19:07:16.103Z,7.90
2023-01-04T19:09:45.547Z,8.00
2023-01-04T19:12:13.595Z,7.90
2023-01-04T19:14:42.006Z,8.00
2023-01-04T19:17:10.362Z,8.10
2023-01-04T19:19:38.360Z,8.10
2023-01-04T19:22:07.201Z,8.00
2023-01-04T19:24:35.216Z,8.10
2023-01-04T19:27:05.245Z,8.00
2023-01-04T19:29:36.011Z,8.00
2023-01-04T19:32:04.647Z,8.10
2023-01-04T19:34:32.733Z,8.00
2023-01-04T19:37:00.833Z,8.10
2023-01-04T19:39:28.823Z,8.10
2023-01-04T19:41:56.803Z,8.20
2023-01-04T19:44:26.281Z,8.20
2023-01-04T19:46:54.395Z,8.20
2023-01-04T19:49:22.403Z,8.20
2023-01-04T19:51:51.662Z,8.40
2023-01-04T19:54:24.992Z,8.40
2023-01-04T19:56:53.256Z,8.40
2023-01-04T19:59:21.283Z,8.40
2023-01-04T20:01:50.700Z,8.40
2023-01-04T20:04:18.794Z,8.50
2023-01-04T20:06:46.879Z,8.50
2023-01-04T20:09:14.977Z,8.50
2023-01-04T20:11:43.030Z,8.60
2023-01-04T20:14:11.044Z,8.50
2023-01-04T20:16:39.108Z,8.60
2023-01-04T20:19:08.587Z,8.60
2023-01-04T20:21:36.670Z,8.60
2023-01-04T20:24:04.917Z,8.50
2023-01-04T20:26:32.863Z,8.50
2023-01-04T20:29:01.006Z,8.60
2023-01-04T20:31:29.073Z,8.60
2023-01-04T20:33:57.497Z,8.60
2023-01-04T20:36:29.403Z,8.70
2023-01-04T20:38:59.492Z,8.70
2023-01-04T20:41:29.016Z,8.70
2023-01-04T20:43:56.350Z,8.70
2023-01-04T20:46:27.029Z,8.80
2023-01-04T20:48:55.996Z,8.70
2023-01-04T20:51:27.886Z,8.70
2023-01-04T20:53:56.891Z,8.70
2023-01-04T20:56:26.882Z,8.70
2023-01-04T20:58:55.533Z,8.90
2023-01-04T21:01:25.015Z,8.90
2023-01-04T21:03:53.240Z,8.80
2023-01-04T21:06:23.014Z,8.80
2023-01-04T21:08:54.871Z,8.80
2023-01-04T21:11:23.542Z,8.80
2023-01-04T21:13:52.709Z,8.70
2023-01-04T21:16:20.953Z,8.70
2023-01-04T21:18:48.993Z,8.70
2023-01-04T21:21:18.559Z,8.70
2023-01-04T21:23:51.730Z,8.70
2023-01-04T21:26:24.063Z,8.80
2023-01-04T21:28:52.106Z,8.80
2023-01-04T21:31:23.687Z,8.80
2023-01-04T21:33:52.639Z,8.80
2023-01-04T21:36:22.545Z,8.80
2023-01-04T21:38:50.957Z,8.80
2023-01-04T21:41:19.518Z,8.70
2023-01-04T21:43:49.037Z,8.70
2023-01-04T21:46:17.080Z,8.70
2023-01-04T21:48:46.258Z,8.60
2023-01-04T21:51:15.549Z,8.70
2023-01-04T21:53:43.646Z,8.70
2023-01-04T21:56:13.911Z,8.70
2023-01-04T21:58:42.640Z,8.80
2023-01-04T22:01:13.288Z,8.80
2023-01-04T22:03:42.840Z,9.00
2023-01-04T22:06:14.107Z,9.10
2023-01-04T22:08:43.562Z,9.30
2023-01-04T22:11:12.330Z,9.40
2023-01-04T22:13:42.873Z,9.60
2023-01-04T22:16:15.811Z,9.60
2023-01-04T22:18:46.391Z,9.70
2023-01-04T22:21:16.133Z,9.70
2023-01-04T22:23:44.383Z,9.70
2023-01-04T22:26:12.748Z,9.70
2023-01-04T22:28:41.370Z,9.70
2023-01-04T22:31:15.353Z,9.70
2023-01-04T22:33:44.429Z,9.60
2023-01-04T22:36:21.876Z,9.60
2023-01-04T22:38:51.838Z,9.60
2023-01-04T22:41:22.688Z,9.50
2023-01-04T22:43:56.776Z,9.50
2023-01-04T22:46:28.004Z,9.50
2023-01-04T22:48:56.604Z,9.50
2023-01-04T22:51:27.681Z,9.40
2023-01-04T22:53:56.407Z,9.40
2023-01-04T22:56:25.438Z,9.40
2023-01-04T22:58:55.676Z,9.40
2023-01-04T23:01:24.970Z,9.40
2023-01-04T23:03:54.964Z,9.40
2023-01-04T23:06:25.016Z,9.40
2023-01-04T23:08:57.849Z,9.30
2023-01-04T23:11:28.133Z,9.30
2023-01-04T23:14:00.147Z,9.30
2023-01-04T23:16:32.845Z,9.30
2023-01-04T23:19:03.791Z,9.30
2023-01-04T23:21:32.974Z,9.30
2023-01-04T23:24:02.159Z,9.20
2023-01-04T23:26:32.603Z,9.20
2023-01-04T23:29:02.394Z,9.20
2023-01-04T23:31:33.169Z,9.20
2023-01-04T23:34:05.257Z,9.20
2023-01-04T23:36:35.520Z,9.20
2023-01-04T23:39:07.738Z,9.20
2023-01-04T23:41:45.660Z,9.20
2023-01-04T23:44:16.635Z,9.20
2023-01-04T23:46:46.104Z,9.20
2023-01-04T23:49:15.811Z,9.20
2023-01-04T23:51:43.951Z,9.20
2023-01-04T23:54:12.400Z,9.20
2023-01-04T23:56:40.849Z,9.20
2023-01-04T23:59:10.016Z,9.20
